createdAt,value
2023-05-25T00:01:02.978Z,2.40
2023-05-25T00:03:32.172Z,0.90
2023-05-25T00:06:04.094Z,0.95
2023-05-25T00:08:30.878Z,1.17
2023-05-25T00:10:57.698Z,1.38
2023-05-25T00:13:24.886Z,0.85
2023-05-25T00:15:51.721Z,1.33
2023-05-25T00:18:18.870Z,1.00
2023-05-25T00:20:47.470Z,1.25
2023-05-25T00:23:14.602Z,1.30
2023-05-25T00:25:41.561Z,1.13
2023-05-25T00:28:08.512Z,1.20
2023-05-25T00:30:35.273Z,1.00
2023-05-25T00:33:03.135Z,1.23
2023-05-25T00:35:29.997Z,1.20
2023-05-25T00:37:56.748Z,1.00
2023-05-25T00:40:23.578Z,1.42
2023-05-25T00:42:52.545Z,1.30
2023-05-25T00:45:19.336Z,1.20
2023-05-25T00:47:51.294Z,0.88
2023-05-25T00:52:49.821Z,1.23
2023-05-25T00:55:19.000Z,1.30
2023-05-25T00:57:51.840Z,1.20
2023-05-25T01:00:19.147Z,1.20
2023-05-25T01:02:46.602Z,1.42
2023-05-25T01:05:17.624Z,1.67
2023-05-25T01:07:45.741Z,1.35
2023-05-25T01:10:16.319Z,0.80
2023-05-25T01:12:46.058Z,1.85
2023-05-25T01:15:12.936Z,2.45
2023-05-25T01:17:40.325Z,1.15
2023-05-25T01:20:11.331Z,1.13
2023-05-25T01:22:51.523Z,1.15
2023-05-25T01:25:30.628Z,1.65
2023-05-25T01:28:04.151Z,1.38
2023-05-25T01:30:32.693Z,1.98
2023-05-25T01:33:01.220Z,1.50
2023-05-25T01:35:28.541Z,1.50
2023-05-25T01:37:56.208Z,1.23
2023-05-25T01:40:23.005Z,1.50
2023-05-25T01:42:49.753Z,1.55
2023-05-25T01:47:55.821Z,1.30
2023-05-25T01:50:40.881Z,1.60
2023-05-25T01:53:12.961Z,1.48
2023-05-25T01:58:15.291Z,1.60
2023-05-25T02:00:42.867Z,1.45
2023-05-25T02:03:10.642Z,1.30
2023-05-25T02:05:38.310Z,1.67
2023-05-25T02:08:05.174Z,1.35
2023-05-25T02:10:31.923Z,1.58
2023-05-25T02:12:58.730Z,1.83
2023-05-25T02:15:25.665Z,1.20
2023-05-25T02:17:52.399Z,1.60
2023-05-25T02:20:19.302Z,1.63
2023-05-25T02:22:46.196Z,1.40
2023-05-25T02:25:13.089Z,1.98
2023-05-25T02:27:39.850Z,1.55
2023-05-25T02:30:07.854Z,1.77
2023-05-25T02:32:35.342Z,2.00
2023-05-25T02:35:02.327Z,2.00
2023-05-25T02:37:29.259Z,1.77
2023-05-25T02:39:56.054Z,1.83
2023-05-25T02:42:22.813Z,1.48
2023-05-25T02:44:49.630Z,1.45
2023-05-25T02:47:18.136Z,1.73
2023-05-25T02:49:45.781Z,1.67
2023-05-25T02:52:12.641Z,1.48
2023-05-25T02:54:39.775Z,2.20
2023-05-25T02:57:06.722Z,2.28
2023-05-25T02:59:33.480Z,2.03
2023-05-25T03:02:00.460Z,1.95
2023-05-25T03:04:27.381Z,2.97
2023-05-25T03:06:54.134Z,2.40
2023-05-25T03:09:21.023Z,1.95
2023-05-25T03:11:47.816Z,1.80
2023-05-25T03:14:14.706Z,2.20
2023-05-25T03:16:41.532Z,2.03
2023-05-25T03:19:08.669Z,2.13
2023-05-25T03:21:35.507Z,2.00
2023-05-25T03:24:02.265Z,2.22
2023-05-25T03:26:29.058Z,2.42
2023-05-25T03:28:55.867Z,1.65
2023-05-25T03:31:23.420Z,2.30
2023-05-25T03:33:50.147Z,2.53
2023-05-25T03:36:17.676Z,2.08
2023-05-25T03:38:45.188Z,2.20
2023-05-25T03:41:11.979Z,1.80
2023-05-25T03:43:38.732Z,2.22
2023-05-25T03:46:05.553Z,1.58
2023-05-25T03:48:32.299Z,1.90
2023-05-25T03:50:59.093Z,2.10
2023-05-25T03:53:25.954Z,2.33
2023-05-25T03:55:52.734Z,1.73
2023-05-25T03:58:19.509Z,2.25
2023-05-25T04:00:49.125Z,2.20
2023-05-25T04:03:16.444Z,2.67
2023-05-25T04:05:45.934Z,3.33
2023-05-25T04:08:18.178Z,2.00
2023-05-25T04:13:12.915Z,2.88
2023-05-25T04:15:39.902Z,2.15
2023-05-25T04:18:06.745Z,2.83
2023-05-25T04:20:33.662Z,2.42
2023-05-25T04:23:00.757Z,3.45
2023-05-25T04:25:29.510Z,2.22
2023-05-25T04:27:56.868Z,2.22
2023-05-25T04:30:24.164Z,2.33
2023-05-25T04:32:51.214Z,2.22
2023-05-25T04:35:21.061Z,2.20
2023-05-25T04:37:48.484Z,2.30
2023-05-25T04:40:15.349Z,1.75
2023-05-25T04:42:42.179Z,2.78
2023-05-25T04:45:10.592Z,2.22
2023-05-25T04:47:41.177Z,2.22
2023-05-25T04:50:11.018Z,2.67
2023-05-25T04:52:37.813Z,2.53
2023-05-25T04:55:04.832Z,1.90
2023-05-25T04:57:31.755Z,2.70
2023-05-25T04:59:59.009Z,2.50
2023-05-25T05:02:26.394Z,3.28
2023-05-25T05:04:54.006Z,2.55
2023-05-25T05:07:23.739Z,2.40
2023-05-25T05:09:50.747Z,2.00
2023-05-25T05:12:17.539Z,2.58
2023-05-25T05:14:44.359Z,2.70
2023-05-25T05:17:12.128Z,4.20
2023-05-25T05:19:38.902Z,2.60
2023-05-25T05:22:06.021Z,2.75
2023-05-25T05:24:32.791Z,2.33
2023-05-25T05:26:59.749Z,2.20
2023-05-25T05:29:28.731Z,2.78
2023-05-25T05:31:56.115Z,2.25
2023-05-25T05:34:22.950Z,2.50
2023-05-25T05:36:57.443Z,2.78
2023-05-25T05:39:25.212Z,3.55
2023-05-25T05:41:52.163Z,2.38
2023-05-25T05:44:20.611Z,2.75
2023-05-25T05:46:47.490Z,2.58
2023-05-25T05:49:14.387Z,2.60
2023-05-25T05:51:41.191Z,3.90
2023-05-25T05:54:07.917Z,2.20
2023-05-25T05:56:34.704Z,2.55
2023-05-25T05:59:01.523Z,2.20
2023-05-25T06:01:28.290Z,2.70
2023-05-25T06:03:56.121Z,3.13
2023-05-25T06:06:23.003Z,3.65
2023-05-25T06:08:49.826Z,2.97
2023-05-25T06:11:16.624Z,2.83
2023-05-25T06:13:45.417Z,2.58
2023-05-25T06:16:13.403Z,3.83
2023-05-25T06:18:40.243Z,2.88
2023-05-25T06:21:07.197Z,2.70
2023-05-25T06:23:34.023Z,4.00
2023-05-25T06:26:05.827Z,2.92
2023-05-25T06:28:32.803Z,3.05
2023-05-25T06:30:59.618Z,2.70
2023-05-25T06:33:26.530Z,3.50
2023-05-25T06:35:58.178Z,3.40
2023-05-25T06:38:25.156Z,3.25
2023-05-25T06:40:52.060Z,3.13
2023-05-25T06:43:19.028Z,3.28
2023-05-25T06:45:46.420Z,3.22
2023-05-25T06:48:13.640Z,3.15
2023-05-25T06:50:40.496Z,3.28
2023-05-25T06:53:07.368Z,2.58
2023-05-25T06:55:34.140Z,3.00
2023-05-25T06:58:00.971Z,2.67
2023-05-25T07:00:27.743Z,2.88
2023-05-25T07:02:54.603Z,4.50
2023-05-25T07:05:22.099Z,3.33
2023-05-25T07:07:48.943Z,3.60
2023-05-25T07:10:15.839Z,4.43
2023-05-25T07:12:42.644Z,3.97
2023-05-25T07:15:10.348Z,3.30
2023-05-25T07:17:38.794Z,2.70
2023-05-25T07:20:06.465Z,3.10
2023-05-25T07:22:33.422Z,4.72
2023-05-25T07:25:00.303Z,3.20
2023-05-25T07:27:27.139Z,3.20
2023-05-25T07:29:53.872Z,2.78
2023-05-25T07:32:20.738Z,2.85
2023-05-25T07:34:47.532Z,3.03
2023-05-25T07:37:14.256Z,2.30
2023-05-25T07:39:41.137Z,2.83
2023-05-25T07:42:07.970Z,2.75
2023-05-25T07:44:35.356Z,2.85
2023-05-25T07:47:02.237Z,2.63
2023-05-25T07:49:29.105Z,2.60
2023-05-25T07:51:55.987Z,3.28
2023-05-25T07:54:22.741Z,2.80
2023-05-25T07:56:49.554Z,2.80
2023-05-25T07:59:16.315Z,3.45
2023-05-25T08:01:43.360Z,3.85
2023-05-25T08:04:10.357Z,2.70
2023-05-25T08:06:37.235Z,2.78
2023-05-25T08:09:05.106Z,2.58
2023-05-25T08:11:31.935Z,3.15
2023-05-25T08:14:00.376Z,4.05
2023-05-25T08:16:27.386Z,2.85
2023-05-25T08:18:54.242Z,3.00
2023-05-25T08:21:21.073Z,2.78
2023-05-25T08:23:48.094Z,3.05
2023-05-25T08:26:34.213Z,2.53
2023-05-25T08:29:04.350Z,3.25
2023-05-25T08:31:32.639Z,1.95
2023-05-25T08:34:02.867Z,2.22
2023-05-25T08:36:29.703Z,2.83
2023-05-25T08:38:57.148Z,2.42
2023-05-25T08:41:23.992Z,2.30
2023-05-25T08:43:50.926Z,2.50
2023-05-25T08:46:29.092Z,2.33
2023-05-25T08:49:04.343Z,2.75
2023-05-25T08:51:39.515Z,2.20
2023-05-25T08:54:09.247Z,2.90
2023-05-25T08:56:59.990Z,2.85
2023-05-25T08:59:30.124Z,2.60
2023-05-25T09:02:06.094Z,3.15
2023-05-25T09:04:34.732Z,2.85
2023-05-25T09:07:10.312Z,3.05
2023-05-25T09:09:39.704Z,2.25
2023-05-25T09:12:07.537Z,2.38
2023-05-25T09:14:35.287Z,2.47
2023-05-25T09:17:02.231Z,2.92
2023-05-25T09:19:29.108Z,2.00
2023-05-25T09:22:03.219Z,3.95
2023-05-25T09:24:41.548Z,2.38
2023-05-25T09:27:12.265Z,3.38
2023-05-25T09:29:39.332Z,2.23
2023-05-25T09:32:08.864Z,2.17
2023-05-25T09:34:35.815Z,2.30
2023-05-25T09:37:19.484Z,2.45
2023-05-25T09:39:47.951Z,2.22
2023-05-25T09:42:14.846Z,3.35
2023-05-25T09:44:42.991Z,2.03
2023-05-25T09:47:10.341Z,2.55
2023-05-25T09:49:37.176Z,3.20
2023-05-25T09:52:04.224Z,2.58
2023-05-25T09:54:31.341Z,2.45
2023-05-25T09:56:59.901Z,3.15
2023-05-25T09:59:27.299Z,2.28
2023-05-25T10:01:54.280Z,2.40
2023-05-25T10:04:21.370Z,1.73
2023-05-25T10:06:51.803Z,2.83
2023-05-25T10:09:19.824Z,1.85
2023-05-25T10:11:48.256Z,2.72
2023-05-25T10:14:20.161Z,1.83
2023-05-25T10:16:52.010Z,2.22
2023-05-25T10:19:42.002Z,2.05
2023-05-25T10:22:24.201Z,2.15
2023-05-25T10:25:04.869Z,2.47
2023-05-25T10:27:41.363Z,2.83
2023-05-25T10:30:09.916Z,2.13
2023-05-25T10:32:37.961Z,2.47
2023-05-25T10:35:09.143Z,2.17
2023-05-25T10:37:36.475Z,1.73
2023-05-25T10:40:03.802Z,1.83
2023-05-25T10:42:31.139Z,1.90
2023-05-25T10:44:58.496Z,1.98
2023-05-25T10:47:26.196Z,2.20
2023-05-25T10:50:01.972Z,2.53
2023-05-25T10:52:29.982Z,1.58
2023-05-25T10:54:58.169Z,1.45
2023-05-25T10:57:26.154Z,2.10
2023-05-25T11:00:02.306Z,1.88
2023-05-25T11:02:30.347Z,1.60
2023-05-25T11:05:28.903Z,1.58
2023-05-25T11:07:57.213Z,2.10
2023-05-25T11:10:50.230Z,2.55
2023-05-25T11:13:23.883Z,2.72
2023-05-25T11:16:29.437Z,1.58
2023-05-25T11:18:58.693Z,2.40
2023-05-25T11:21:28.250Z,1.90
2023-05-25T11:23:56.081Z,1.90
2023-05-25T11:26:28.805Z,1.58
2023-05-25T11:28:59.072Z,1.92
2023-05-25T11:31:32.364Z,1.58
2023-05-25T11:34:01.670Z,1.48
2023-05-25T11:36:33.749Z,1.98
2023-05-25T11:39:08.485Z,2.20
2023-05-25T11:41:48.857Z,1.88
2023-05-25T11:44:15.628Z,1.63
2023-05-25T11:46:43.938Z,2.90
2023-05-25T11:49:10.925Z,1.48
2023-05-25T11:51:38.107Z,2.38
2023-05-25T11:54:05.048Z,1.77
2023-05-25T11:56:36.029Z,1.92
2023-05-25T11:59:08.123Z,3.05
2023-05-25T12:01:34.906Z,2.17
2023-05-25T12:04:09.385Z,1.55
2023-05-25T12:06:36.836Z,1.42
2023-05-25T12:09:08.323Z,1.90
2023-05-25T12:11:38.833Z,2.08
2023-05-25T12:14:07.351Z,1.95
2023-05-25T12:16:39.052Z,2.05
2023-05-25T12:19:07.320Z,2.35
2023-05-25T12:21:36.586Z,1.23
2023-05-25T12:24:06.341Z,1.98
2023-05-25T12:26:33.238Z,1.83
2023-05-25T12:29:04.148Z,1.80
2023-05-25T12:31:41.436Z,1.23
2023-05-25T12:34:18.499Z,1.80
2023-05-25T12:36:49.168Z,1.33
2023-05-25T12:39:17.532Z,3.03
2023-05-25T12:41:54.467Z,3.08
2023-05-25T12:44:21.774Z,1.80
2023-05-25T12:46:50.262Z,1.50
2023-05-25T12:49:34.334Z,1.60
2023-05-25T12:52:03.996Z,1.73
2023-05-25T12:54:45.067Z,1.33
2023-05-25T12:57:17.151Z,1.70
2023-05-25T12:59:47.999Z,1.25
2023-05-25T13:02:15.180Z,1.75
2023-05-25T13:04:42.651Z,2.60
2023-05-25T13:07:10.147Z,1.88
2023-05-25T13:09:37.833Z,1.52
2023-05-25T13:12:05.037Z,1.90
2023-05-25T13:14:31.856Z,1.73
2023-05-25T13:16:58.943Z,2.70
2023-05-25T13:19:26.964Z,1.58
2023-05-25T13:21:55.554Z,2.40
2023-05-25T13:24:22.876Z,2.80
2023-05-25T13:26:51.090Z,3.03
2023-05-25T13:29:18.401Z,3.05
2023-05-25T13:31:45.298Z,3.75
2023-05-25T13:34:12.221Z,3.08
2023-05-25T13:36:38.954Z,2.70
2023-05-25T13:39:05.692Z,2.55
2023-05-25T13:41:32.550Z,2.90
2023-05-25T13:43:59.343Z,2.90
2023-05-25T13:46:34.871Z,3.75
2023-05-25T13:49:02.930Z,2.85
2023-05-25T13:51:29.735Z,2.75
2023-05-25T13:53:56.513Z,3.00
2023-05-25T13:56:23.502Z,3.15
2023-05-25T13:58:50.330Z,2.75
2023-05-25T14:01:17.092Z,3.42
2023-05-25T14:03:44.210Z,2.58
2023-05-25T14:06:11.174Z,2.47
2023-05-25T14:08:38.101Z,2.90
2023-05-25T14:11:04.980Z,2.95
2023-05-25T14:13:31.752Z,2.25
2023-05-25T14:15:58.594Z,3.33
2023-05-25T14:18:25.450Z,3.08
2023-05-25T14:20:52.836Z,2.92
2023-05-25T14:23:19.671Z,3.50
2023-05-25T14:25:47.169Z,6.38
2023-05-25T14:28:14.765Z,4.78
2023-05-25T14:30:41.881Z,4.22
2023-05-25T14:33:14.080Z,2.92
2023-05-25T14:35:42.954Z,3.35
2023-05-25T14:38:10.188Z,4.18
2023-05-25T14:40:36.965Z,4.38
2023-05-25T14:43:03.804Z,3.15
2023-05-25T14:45:30.683Z,3.00
2023-05-25T14:48:11.958Z,2.97
2023-05-25T14:50:44.648Z,2.88
2023-05-25T14:53:12.059Z,2.60
2023-05-25T14:55:38.846Z,3.03
2023-05-25T14:58:05.710Z,4.18
2023-05-25T15:00:32.650Z,4.53
2023-05-25T15:02:59.500Z,3.47
2023-05-25T15:05:26.287Z,2.90
2023-05-25T15:07:53.068Z,2.97
2023-05-25T15:10:19.931Z,2.97
2023-05-25T15:12:46.642Z,2.67
2023-05-25T15:15:13.459Z,2.63
2023-05-25T15:17:40.681Z,2.40
2023-05-25T15:20:07.861Z,2.17
2023-05-25T15:22:34.603Z,3.15
2023-05-25T15:25:02.775Z,2.60
2023-05-25T15:27:29.734Z,3.28
2023-05-25T15:29:56.624Z,3.85
2023-05-25T15:32:23.376Z,2.95
2023-05-25T15:34:50.107Z,2.75
2023-05-25T15:37:16.902Z,2.72
2023-05-25T15:39:43.823Z,2.75
2023-05-25T15:42:10.615Z,2.75
2023-05-25T15:44:37.335Z,3.20
2023-05-25T15:47:04.251Z,3.03
2023-05-25T15:49:32.193Z,2.60
2023-05-25T15:51:58.917Z,3.28
2023-05-25T15:54:25.737Z,2.65
2023-05-25T15:56:52.504Z,3.00
2023-05-25T15:59:19.327Z,3.10
2023-05-25T16:01:46.230Z,2.72
2023-05-25T16:04:13.163Z,2.45
2023-05-25T16:06:40.080Z,3.22
2023-05-25T16:09:06.858Z,3.35
2023-05-25T16:11:34.265Z,3.25
2023-05-25T16:14:01.137Z,3.40
2023-05-25T16:16:27.993Z,3.75
2023-05-25T16:18:54.793Z,2.72
2023-05-25T16:21:21.642Z,3.47
2023-05-25T16:23:48.426Z,3.45
2023-05-25T16:26:15.194Z,3.03
2023-05-25T16:28:42.096Z,3.95
2023-05-25T16:31:08.842Z,3.33
2023-05-25T16:33:35.646Z,3.55
2023-05-25T16:36:02.566Z,3.60
2023-05-25T16:38:29.382Z,5.20
2023-05-25T16:40:56.232Z,4.57
2023-05-25T16:43:25.259Z,3.42
2023-05-25T16:45:52.627Z,3.35
2023-05-25T16:48:21.601Z,3.28
2023-05-25T16:50:49.965Z,3.15
2023-05-25T16:53:16.690Z,3.17
2023-05-25T16:55:43.753Z,3.10
2023-05-25T16:58:10.674Z,4.18
2023-05-25T17:00:37.619Z,3.95
2023-05-25T17:03:04.768Z,4.25
2023-05-25T17:05:31.562Z,3.25
2023-05-25T17:07:58.457Z,5.22
2023-05-25T17:10:25.306Z,3.65
2023-05-25T17:12:52.131Z,3.70
2023-05-25T17:15:18.911Z,4.15
2023-05-25T17:17:45.712Z,4.28
2023-05-25T17:20:12.660Z,3.38
2023-05-25T17:22:39.461Z,4.20
2023-05-25T17:25:07.441Z,5.65
2023-05-25T17:27:34.188Z,5.68
2023-05-25T17:30:01.011Z,5.15
2023-05-25T17:32:27.800Z,3.72
2023-05-25T17:34:54.608Z,4.38
2023-05-25T17:37:21.453Z,5.22
2023-05-25T17:39:48.437Z,5.40
2023-05-25T17:42:15.158Z,5.75
2023-05-25T17:44:42.641Z,5.13
2023-05-25T17:47:11.209Z,5.18
2023-05-25T17:49:38.336Z,4.47
2023-05-25T17:52:05.543Z,4.60
2023-05-25T17:54:32.425Z,5.30
2023-05-25T17:56:59.226Z,8.45
2023-05-25T17:59:25.954Z,5.72
2023-05-25T18:01:52.807Z,6.13
2023-05-25T18:04:19.938Z,4.88
2023-05-25T18:06:49.899Z,4.10
2023-05-25T18:09:16.964Z,4.97
2023-05-25T18:11:43.705Z,3.92
2023-05-25T18:14:10.520Z,4.45
2023-05-25T18:16:41.712Z,4.60
2023-05-25T18:19:09.550Z,4.60
2023-05-25T18:21:40.368Z,4.18
2023-05-25T18:24:10.940Z,3.93
2023-05-25T18:26:37.725Z,5.35
2023-05-25T18:29:04.629Z,4.15
2023-05-25T18:31:32.607Z,4.45
2023-05-25T18:34:00.395Z,7.15
2023-05-25T18:36:27.177Z,4.90
2023-05-25T18:38:53.918Z,4.60
2023-05-25T18:41:21.520Z,3.28
2023-05-25T18:43:49.198Z,6.38
2023-05-25T18:46:16.751Z,4.88
2023-05-25T18:48:43.624Z,4.80
2023-05-25T18:51:10.782Z,5.28
2023-05-25T18:53:38.660Z,4.78
2023-05-25T18:56:06.813Z,4.50
2023-05-25T18:58:33.509Z,4.47
2023-05-25T19:01:00.352Z,4.40
2023-05-25T19:03:27.748Z,5.32
2023-05-25T19:05:54.765Z,5.43
2023-05-25T19:08:21.728Z,4.80
2023-05-25T19:10:48.596Z,5.32
2023-05-25T19:13:15.453Z,4.68
2023-05-25T19:15:42.178Z,7.28
2023-05-25T19:18:09.037Z,5.28
2023-05-25T19:20:36.995Z,4.97
2023-05-25T19:23:04.207Z,4.80
2023-05-25T19:25:31.238Z,6.10
2023-05-25T19:27:59.717Z,5.00
2023-05-25T19:30:26.599Z,4.35
2023-05-25T19:32:53.454Z,4.22
2023-05-25T19:35:20.234Z,4.93
2023-05-25T19:37:47.012Z,5.35
2023-05-25T19:40:14.102Z,6.95
2023-05-25T19:42:40.882Z,8.02
2023-05-25T19:45:07.939Z,4.28
2023-05-25T19:47:36.038Z,5.00
2023-05-25T19:50:03.198Z,7.18
2023-05-25T19:52:31.043Z,4.88
2023-05-25T19:54:57.769Z,4.32
2023-05-25T19:57:26.252Z,5.43
2023-05-25T19:59:53.743Z,4.10
2023-05-25T20:02:20.877Z,4.38
2023-05-25T20:04:47.746Z,5.05
2023-05-25T20:07:18.269Z,5.10
2023-05-25T20:09:45.667Z,4.35
2023-05-25T20:12:13.765Z,4.53
2023-05-25T20:14:40.718Z,5.05
2023-05-25T20:17:07.498Z,4.50
2023-05-25T20:19:34.285Z,4.95
2023-05-25T20:22:01.962Z,4.78
2023-05-25T20:24:28.717Z,4.90
2023-05-25T20:26:57.011Z,5.13
2023-05-25T20:29:23.964Z,4.40
2023-05-25T20:31:50.914Z,6.50
2023-05-25T20:34:18.228Z,6.28
2023-05-25T20:36:57.059Z,7.00
2023-05-25T20:39:24.008Z,5.22
2023-05-25T20:41:50.928Z,7.90
2023-05-25T20:44:17.674Z,4.43
2023-05-25T20:46:44.506Z,4.82
2023-05-25T20:49:13.436Z,7.20
2023-05-25T20:51:40.354Z,4.35
2023-05-25T20:54:07.076Z,5.88
2023-05-25T20:56:33.881Z,4.63
2023-05-25T20:59:00.872Z,4.25
2023-05-25T21:01:29.553Z,6.53
2023-05-25T21:03:57.739Z,4.38
2023-05-25T21:06:24.664Z,4.45
2023-05-25T21:08:53.030Z,4.40
2023-05-25T21:11:20.983Z,4.07
2023-05-25T21:13:48.425Z,4.35
2023-05-25T21:16:15.329Z,4.97
2023-05-25T21:18:42.198Z,4.50
2023-05-25T21:21:11.257Z,4.40
2023-05-25T21:23:37.991Z,4.75
2023-05-25T21:26:04.823Z,4.22
2023-05-25T21:28:31.605Z,4.38
2023-05-25T21:30:58.380Z,3.53
2023-05-25T21:33:25.202Z,3.42
2023-05-25T21:35:52.166Z,4.25
2023-05-25T21:38:19.137Z,4.32
2023-05-25T21:40:45.938Z,4.57
2023-05-25T21:43:12.767Z,3.63
2023-05-25T21:45:39.505Z,3.92
2023-05-25T21:48:06.297Z,4.50
2023-05-25T21:50:33.123Z,3.35
2023-05-25T21:52:59.901Z,3.42
2023-05-25T21:55:26.742Z,4.22
2023-05-25T21:57:53.833Z,3.63
2023-05-25T22:00:20.865Z,3.58
2023-05-25T22:02:48.912Z,3.55
2023-05-25T22:05:15.910Z,3.45
2023-05-25T22:07:42.692Z,3.80
2023-05-25T22:10:11.757Z,4.50
2023-05-25T22:12:38.550Z,3.80
2023-05-25T22:15:06.618Z,3.58
2023-05-25T22:17:33.467Z,4.18
2023-05-25T22:20:07.984Z,3.95
2023-05-25T22:22:36.647Z,3.42
2023-05-25T22:25:04.343Z,4.43
2023-05-25T22:27:31.106Z,4.38
2023-05-25T22:29:57.900Z,3.45
2023-05-25T22:32:24.738Z,4.03
2023-05-25T22:34:51.474Z,4.38
2023-05-25T22:37:18.363Z,3.72
2023-05-25T22:39:45.102Z,4.80
2023-05-25T22:42:12.014Z,5.57
2023-05-25T22:44:38.988Z,4.00
2023-05-25T22:47:06.670Z,4.13
2023-05-25T22:49:41.178Z,3.05
2023-05-25T22:52:12.166Z,4.70
2023-05-25T22:54:39.160Z,4.05
2023-05-25T22:57:08.238Z,3.90
2023-05-25T22:59:35.031Z,3.33
2023-05-25T23:02:02.179Z,3.08
2023-05-25T23:04:29.014Z,4.53
2023-05-25T23:06:55.830Z,3.33
2023-05-25T23:09:26.069Z,3.25
2023-05-25T23:11:52.783Z,5.15
2023-05-25T23:14:21.148Z,2.58
2023-05-25T23:16:50.505Z,3.53
2023-05-25T23:19:18.144Z,2.85
2023-05-25T23:21:44.907Z,3.28
2023-05-25T23:24:11.816Z,2.60
2023-05-25T23:26:38.511Z,2.53
2023-05-25T23:29:05.349Z,3.80
2023-05-25T23:31:32.225Z,3.22
2023-05-25T23:33:59.009Z,2.55
2023-05-25T23:36:28.819Z,2.45
2023-05-25T23:38:55.791Z,2.60
2023-05-25T23:41:23.218Z,2.10
2023-05-25T23:43:50.163Z,2.58
2023-05-25T23:46:17.494Z,1.85
2023-05-25T23:48:47.098Z,2.10
2023-05-25T23:51:13.890Z,2.05
2023-05-25T23:53:41.068Z,2.22
2023-05-25T23:56:08.164Z,2.17
2023-05-25T23:58:34.977Z,2.00
